sensor_id;sensor_type;location;lat;lon;timestamp;pressure;altitude;pressure_sealevel;temperature;humidity
69411;BME280;56604;48.652;9.194;2023-06-14T00:01:10;95766.28;;;16.81;39.54
69411;BME280;56604;48.652;9.194;2023-06-14T00:03:38;95771.78;;;16.85;39.46
69411;BME280;56604;48.652;9.194;2023-06-14T00:06:04;95768.75;;;16.78;39.88
69411;BME280;56604;48.652;9.194;2023-06-14T00:08:29;95766.22;;;16.95;39.17
69411;BME280;56604;48.652;9.194;2023-06-14T00:10:55;95754.75;;;16.86;39.37
69411;BME280;56604;48.652;9.194;2023-06-14T00:13:20;95762.72;;;16.86;39.12
69411;BME280;56604;48.652;9.194;2023-06-14T00:15:46;95763.53;;;16.73;39.67
69411;BME280;56604;48.652;9.194;2023-06-14T00:18:12;95764.13;;;16.70;39.72
69411;BME280;56604;48.652;9.194;2023-06-14T00:20:38;95765.31;;;16.77;39.68
69411;BME280;56604;48.652;9.194;2023-06-14T00:23:04;95766.78;;;16.70;39.50
69411;BME280;56604;48.652;9.194;2023-06-14T00:25:30;95764.13;;;16.70;39.14
69411;BME280;56604;48.652;9.194;2023-06-14T00:27:57;95758.25;;;16.59;39.45
69411;BME280;56604;48.652;9.194;2023-06-14T00:30:23;95759.66;;;16.56;39.64
69411;BME280;56604;48.652;9.194;2023-06-14T00:32:49;95759.94;;;16.55;39.52
69411;BME280;56604;48.652;9.194;2023-06-14T00:35:15;95754.44;;;16.51;40.04
69411;BME280;56604;48.652;9.194;2023-06-14T00:37:40;95745.22;;;16.49;39.97
69411;BME280;56604;48.652;9.194;2023-06-14T00:40:06;95751.78;;;16.51;39.57
69411;BME280;56604;48.652;9.194;2023-06-14T00:42:32;95753.19;;;16.49;39.37
69411;BME280;56604;48.652;9.194;2023-06-14T00:44:57;95753.78;;;16.46;39.96
69411;BME280;56604;48.652;9.194;2023-06-14T00:47:23;95756.50;;;16.54;39.16
69411;BME280;56604;48.652;9.194;2023-06-14T00:49:49;95751.38;;;16.58;39.31
69411;BME280;56604;48.652;9.194;2023-06-14T00:52:16;95758.31;;;16.45;39.28
69411;BME280;56604;48.652;9.194;2023-06-14T00:54:42;95753.34;;;16.52;39.28
69411;BME280;56604;48.652;9.194;2023-06-14T00:57:08;95751.78;;;16.51;38.61
69411;BME280;56604;48.652;9.194;2023-06-14T00:59:40;95749.06;;;16.42;39.64
69411;BME280;56604;48.652;9.194;2023-06-14T01:02:06;95747.09;;;16.48;39.30
69411;BME280;56604;48.652;9.194;2023-06-14T01:04:32;95746.09;;;16.44;39.78
69411;BME280;56604;48.652;9.194;2023-06-14T01:07:03;95750.22;;;16.50;39.16
69411;BME280;56604;48.652;9.194;2023-06-14T01:15:03;95749.47;;;16.22;40.54
69411;BME280;56604;48.652;9.194;2023-06-14T01:17:30;95749.88;;;16.02;40.97
69411;BME280;56604;48.652;9.194;2023-06-14T01:19:58;95753.13;;;16.12;40.49
69411;BME280;56604;48.652;9.194;2023-06-14T01:22:28;95761.97;;;15.94;41.12
69411;BME280;56604;48.652;9.194;2023-06-14T01:24:54;95759.34;;;15.94;41.40
69411;BME280;56604;48.652;9.194;2023-06-14T01:27:22;95757.63;;;15.84;41.54
69411;BME280;56604;48.652;9.194;2023-06-14T01:29:51;95750.69;;;15.74;41.72
69411;BME280;56604;48.652;9.194;2023-06-14T01:32:17;95754.16;;;15.56;42.15
69411;BME280;56604;48.652;9.194;2023-06-14T01:34:43;95760.81;;;15.53;42.26
69411;BME280;56604;48.652;9.194;2023-06-14T01:37:10;95758.47;;;15.52;42.41
69411;BME280;56604;48.652;9.194;2023-06-14T01:39:36;95761.41;;;15.50;42.40
69411;BME280;56604;48.652;9.194;2023-06-14T01:42:03;95753.69;;;15.54;42.50
69411;BME280;56604;48.652;9.194;2023-06-14T01:44:30;95758.47;;;15.52;42.42
69411;BME280;56604;48.652;9.194;2023-06-14T01:46:56;95752.16;;;15.48;42.54
69411;BME280;56604;48.652;9.194;2023-06-14T01:49:22;95750.13;;;15.59;42.33
69411;BME280;56604;48.652;9.194;2023-06-14T01:51:48;95751.59;;;15.65;42.15
69411;BME280;56604;48.652;9.194;2023-06-14T01:54:13;95754.72;;;15.53;42.37
69411;BME280;56604;48.652;9.194;2023-06-14T01:56:38;95752.75;;;15.45;42.64
69411;BME280;56604;48.652;9.194;2023-06-14T01:59:04;95748.63;;;15.39;42.80
69411;BME280;56604;48.652;9.194;2023-06-14T02:01:29;95749.78;;;15.33;43.30
69411;BME280;56604;48.652;9.194;2023-06-14T02:03:55;95752.06;;;15.25;43.02
69411;BME280;56604;48.652;9.194;2023-06-14T02:06:21;95748.59;;;15.25;43.13
69411;BME280;56604;48.652;9.194;2023-06-14T02:08:46;95753.03;;;15.29;43.40
69411;BME280;56604;48.652;9.194;2023-06-14T02:11:11;95751.16;;;15.30;43.09
69411;BME280;56604;48.652;9.194;2023-06-14T02:13:36;95760.00;;;15.25;43.10
69411;BME280;56604;48.652;9.194;2023-06-14T02:16:02;95749.41;;;15.25;43.45
69411;BME280;56604;48.652;9.194;2023-06-14T02:18:27;95756.91;;;15.18;43.19
69411;BME280;56604;48.652;9.194;2023-06-14T02:20:53;95750.06;;;15.17;43.59
69411;BME280;56604;48.652;9.194;2023-06-14T02:23:18;95749.28;;;15.30;43.41
69411;BME280;56604;48.652;9.194;2023-06-14T02:25:43;95751.84;;;15.36;43.03
69411;BME280;56604;48.652;9.194;2023-06-14T02:28:10;95752.38;;;15.38;43.15
69411;BME280;56604;48.652;9.194;2023-06-14T02:30:35;95750.56;;;15.33;43.49
69411;BME280;56604;48.652;9.194;2023-06-14T02:33:01;95742.72;;;15.28;43.39
69411;BME280;56604;48.652;9.194;2023-06-14T02:35:27;95756.06;;;15.23;43.32
69411;BME280;56604;48.652;9.194;2023-06-14T02:37:53;95752.59;;;15.22;43.59
69411;BME280;56604;48.652;9.194;2023-06-14T02:40:19;95757.31;;;15.12;44.44
69411;BME280;56604;48.652;9.194;2023-06-14T02:42:45;95748.72;;;15.01;44.23
69411;BME280;56604;48.652;9.194;2023-06-14T02:45:10;95753.59;;;14.94;44.61
69411;BME280;56604;48.652;9.194;2023-06-14T02:47:36;95751.69;;;14.80;44.92
69411;BME280;56604;48.652;9.194;2023-06-14T02:50:01;95749.56;;;14.64;45.72
69411;BME280;56604;48.652;9.194;2023-06-14T02:52:27;95748.31;;;14.56;46.04
69411;BME280;56604;48.652;9.194;2023-06-14T02:54:53;95742.81;;;14.52;46.97
69411;BME280;56604;48.652;9.194;2023-06-14T02:57:19;95744.72;;;14.47;47.10
69411;BME280;56604;48.652;9.194;2023-06-14T02:59:45;95745.72;;;14.51;46.97
69411;BME280;56604;48.652;9.194;2023-06-14T03:02:10;95751.00;;;14.51;46.96
69411;BME280;56604;48.652;9.194;2023-06-14T03:04:35;95749.00;;;14.43;47.55
69411;BME280;56604;48.652;9.194;2023-06-14T03:07:02;95749.22;;;14.46;46.46
69411;BME280;56604;48.652;9.194;2023-06-14T03:09:36;95749.22;;;14.46;46.31
69411;BME280;56604;48.652;9.194;2023-06-14T03:12:03;95749.22;;;14.46;46.99
69411;BME280;56604;48.652;9.194;2023-06-14T03:14:28;95750.22;;;14.50;46.29
69411;BME280;56604;48.652;9.194;2023-06-14T03:16:55;95750.75;;;14.52;45.94
69411;BME280;56604;48.652;9.194;2023-06-14T03:19:22;95750.97;;;14.56;45.86
69411;BME280;56604;48.652;9.194;2023-06-14T03:21:47;95757.75;;;14.62;45.74
69411;BME280;56604;48.652;9.194;2023-06-14T03:24:12;95765.44;;;14.64;45.50
69411;BME280;56604;48.652;9.194;2023-06-14T03:26:38;95758.19;;;14.69;46.05
69411;BME280;56604;48.652;9.194;2023-06-14T03:29:03;95764.34;;;14.83;46.10
69411;BME280;56604;48.652;9.194;2023-06-14T03:31:29;95764.81;;;14.85;45.66
69411;BME280;56604;48.652;9.194;2023-06-14T03:33:58;95766.47;;;14.81;45.41
69411;BME280;56604;48.652;9.194;2023-06-14T03:36:23;95776.50;;;14.84;46.28
69411;BME280;56604;48.652;9.194;2023-06-14T03:38:48;95772.69;;;14.91;45.81
69411;BME280;56604;48.652;9.194;2023-06-14T03:41:14;95773.66;;;15.14;45.11
69411;BME280;56604;48.652;9.194;2023-06-14T03:43:39;95776.00;;;15.34;44.77
69411;BME280;56604;48.652;9.194;2023-06-14T03:46:04;95772.19;;;15.40;44.68
69411;BME280;56604;48.652;9.194;2023-06-14T03:48:30;95774.03;;;15.72;43.72
69411;BME280;56604;48.652;9.194;2023-06-14T03:50:55;95775.63;;;16.01;43.11
69411;BME280;56604;48.652;9.194;2023-06-14T03:53:21;95773.06;;;16.24;42.67
69411;BME280;56604;48.652;9.194;2023-06-14T03:55:49;95779.91;;;16.52;42.58
69411;BME280;56604;48.652;9.194;2023-06-14T03:58:15;95787.13;;;16.88;41.91
69411;BME280;56604;48.652;9.194;2023-06-14T04:00:41;95784.94;;;17.35;41.08
69411;BME280;56604;48.652;9.194;2023-06-14T04:03:06;95784.31;;;17.61;41.07
69411;BME280;56604;48.652;9.194;2023-06-14T04:05:31;95786.31;;;18.26;39.86
69411;BME280;56604;48.652;9.194;2023-06-14T04:07:57;95782.06;;;18.82;38.66
69411;BME280;56604;48.652;9.194;2023-06-14T04:10:24;95787.94;;;19.66;37.95
69411;BME280;56604;48.652;9.194;2023-06-14T04:12:49;95788.97;;;19.91;37.52
69411;BME280;56604;48.652;9.194;2023-06-14T04:15:15;95793.03;;;20.36;37.25
69411;BME280;56604;48.652;9.194;2023-06-14T04:17:41;95804.22;;;20.20;37.52
69411;BME280;56604;48.652;9.194;2023-06-14T04:20:06;95797.03;;;21.01;36.82
69411;BME280;56604;48.652;9.194;2023-06-14T04:22:34;95808.09;;;20.32;37.74
69411;BME280;56604;48.652;9.194;2023-06-14T04:24:59;95805.16;;;20.84;36.94
69411;BME280;56604;48.652;9.194;2023-06-14T04:27:26;95803.63;;;21.58;35.28
69411;BME280;56604;48.652;9.194;2023-06-14T04:29:53;95808.97;;;22.28;34.52
69411;BME280;56604;48.652;9.194;2023-06-14T04:32:23;95803.47;;;23.83;31.24
69411;BME280;56604;48.652;9.194;2023-06-14T04:34:53;95803.47;;;23.54;31.66
69411;BME280;56604;48.652;9.194;2023-06-14T04:37:19;95805.22;;;23.91;31.07
69411;BME280;56604;48.652;9.194;2023-06-14T04:39:46;95797.81;;;23.88;30.85
69411;BME280;56604;48.652;9.194;2023-06-14T04:42:12;95816.00;;;23.50;31.21
69411;BME280;56604;48.652;9.194;2023-06-14T04:44:39;95805.03;;;24.47;30.87
69411;BME280;56604;48.652;9.194;2023-06-14T04:47:05;95817.38;;;23.16;32.29
69411;BME280;56604;48.652;9.194;2023-06-14T04:49:32;95816.47;;;24.95;29.93
69411;BME280;56604;48.652;9.194;2023-06-14T04:51:59;95818.38;;;23.80;31.75
69411;BME280;56604;48.652;9.194;2023-06-14T04:54:26;95820.31;;;25.13;30.40
69411;BME280;56604;48.652;9.194;2023-06-14T04:56:52;95831.78;;;25.88;29.59
69411;BME280;56604;48.652;9.194;2023-06-14T04:59:18;95841.03;;;25.13;29.58
69411;BME280;56604;48.652;9.194;2023-06-14T05:01:44;95826.88;;;25.74;28.40
69411;BME280;56604;48.652;9.194;2023-06-14T05:04:16;95838.50;;;25.78;27.72
69411;BME280;56604;48.652;9.194;2023-06-14T05:06:42;95844.19;;;25.15;29.26
69411;BME280;56604;48.652;9.194;2023-06-14T05:09:10;95846.66;;;25.24;29.56
69411;BME280;56604;48.652;9.194;2023-06-14T05:11:36;95849.38;;;24.73;31.15
69411;BME280;56604;48.652;9.194;2023-06-14T05:14:01;95849.94;;;24.62;30.81
69411;BME280;56604;48.652;9.194;2023-06-14T05:16:26;95855.91;;;24.56;32.38
69411;BME280;56604;48.652;9.194;2023-06-14T05:18:54;95847.94;;;25.69;30.23
69411;BME280;56604;48.652;9.194;2023-06-14T05:21:20;95848.88;;;25.57;30.14
69411;BME280;56604;48.652;9.194;2023-06-14T05:23:45;95861.69;;;25.64;29.37
69411;BME280;56604;48.652;9.194;2023-06-14T05:26:11;95858.06;;;25.95;29.44
69411;BME280;56604;48.652;9.194;2023-06-14T05:28:36;95854.69;;;25.40;31.15
69411;BME280;56604;48.652;9.194;2023-06-14T05:31:02;95853.81;;;26.17;28.57
69411;BME280;56604;48.652;9.194;2023-06-14T05:33:27;95864.63;;;24.84;31.10
69411;BME280;56604;48.652;9.194;2023-06-14T05:35:53;95873.44;;;24.50;30.98
69411;BME280;56604;48.652;9.194;2023-06-14T05:38:18;95858.31;;;24.77;30.79
69411;BME280;56604;48.652;9.194;2023-06-14T05:40:43;95858.22;;;24.89;30.44
69411;BME280;56604;48.652;9.194;2023-06-14T05:43:09;95857.09;;;25.25;30.11
69411;BME280;56604;48.652;9.194;2023-06-14T05:45:35;95859.66;;;25.02;31.54
69411;BME280;56604;48.652;9.194;2023-06-14T05:48:00;95858.53;;;25.81;29.25
69411;BME280;56604;48.652;9.194;2023-06-14T05:50:26;95865.81;;;25.57;29.26
69411;BME280;56604;48.652;9.194;2023-06-14T05:52:51;95863.44;;;25.95;29.93
69411;BME280;56604;48.652;9.194;2023-06-14T05:55:16;95866.25;;;26.21;28.41
69411;BME280;56604;48.652;9.194;2023-06-14T05:57:42;95873.59;;;25.24;29.29
69411;BME280;56604;48.652;9.194;2023-06-14T06:00:08;95863.75;;;24.45;31.73
69411;BME280;56604;48.652;9.194;2023-06-14T06:02:36;95865.13;;;24.55;29.90
69411;BME280;56604;48.652;9.194;2023-06-14T06:05:02;95865.06;;;24.86;31.32
69411;BME280;56604;48.652;9.194;2023-06-14T06:07:27;95867.78;;;25.22;30.69
69411;BME280;56604;48.652;9.194;2023-06-14T06:09:53;95870.06;;;25.04;29.78
69411;BME280;56604;48.652;9.194;2023-06-14T06:12:18;95867.94;;;24.78;30.49
69411;BME280;56604;48.652;9.194;2023-06-14T06:14:43;95870.28;;;25.30;30.28
69411;BME280;56604;48.652;9.194;2023-06-14T06:17:09;95875.84;;;25.61;30.92
69411;BME280;56604;48.652;9.194;2023-06-14T06:19:34;95866.34;;;26.06;29.54
69411;BME280;56604;48.652;9.194;2023-06-14T06:22:00;95875.44;;;26.20;28.33
69411;BME280;56604;48.652;9.194;2023-06-14T06:24:25;95883.41;;;25.90;28.97
69411;BME280;56604;48.652;9.194;2023-06-14T06:26:50;95875.19;;;26.06;28.93
69411;BME280;56604;48.652;9.194;2023-06-14T06:29:16;95882.16;;;24.94;29.28
69411;BME280;56604;48.652;9.194;2023-06-14T06:31:41;95884.31;;;24.88;31.21
69411;BME280;56604;48.652;9.194;2023-06-14T06:34:06;95884.72;;;25.06;29.65
69411;BME280;56604;48.652;9.194;2023-06-14T06:36:31;95886.69;;;24.58;30.45
69411;BME280;56604;48.652;9.194;2023-06-14T06:38:57;95889.88;;;23.72;32.51
69411;BME280;56604;48.652;9.194;2023-06-14T06:41:22;95884.53;;;24.64;31.89
69411;BME280;56604;48.652;9.194;2023-06-14T06:43:47;95893.16;;;24.89;30.82
69411;BME280;56604;48.652;9.194;2023-06-14T06:46:13;95900.72;;;24.67;30.75
69411;BME280;56604;48.652;9.194;2023-06-14T06:48:38;95895.28;;;24.64;30.57
69411;BME280;56604;48.652;9.194;2023-06-14T06:51:04;95899.13;;;24.98;31.00
69411;BME280;56604;48.652;9.194;2023-06-14T06:53:30;95909.59;;;25.74;30.42
69411;BME280;56604;48.652;9.194;2023-06-14T06:55:56;95898.25;;;25.65;30.87
69411;BME280;56604;48.652;9.194;2023-06-14T06:58:21;95906.31;;;25.26;32.05
69411;BME280;56604;48.652;9.194;2023-06-14T07:00:47;95910.66;;;25.89;29.92
69411;BME280;56604;48.652;9.194;2023-06-14T07:03:12;95911.84;;;24.66;32.14
69411;BME280;56604;48.652;9.194;2023-06-14T07:05:38;95920.81;;;25.05;30.92
69411;BME280;56604;48.652;9.194;2023-06-14T07:08:03;95913.34;;;25.69;30.98
69411;BME280;56604;48.652;9.194;2023-06-14T07:10:29;95915.09;;;25.81;31.04
69411;BME280;56604;48.652;9.194;2023-06-14T07:12:54;95918.31;;;25.87;30.25
69411;BME280;56604;48.652;9.194;2023-06-14T07:15:19;95910.03;;;25.76;29.62
69411;BME280;56604;48.652;9.194;2023-06-14T07:17:45;95914.06;;;25.86;30.12
69411;BME280;56604;48.652;9.194;2023-06-14T07:20:11;95924.19;;;25.92;29.50
69411;BME280;56604;48.652;9.194;2023-06-14T07:22:42;95927.25;;;25.17;30.49
69411;BME280;56604;48.652;9.194;2023-06-14T07:25:11;95935.50;;;25.43;30.58
69411;BME280;56604;48.652;9.194;2023-06-14T07:27:43;95934.56;;;25.16;31.83
69411;BME280;56604;48.652;9.194;2023-06-14T07:30:09;95930.00;;;25.75;29.25
69411;BME280;56604;48.652;9.194;2023-06-14T07:32:35;95926.16;;;26.15;29.01
69411;BME280;56604;48.652;9.194;2023-06-14T07:35:00;95936.91;;;25.37;30.73
69411;BME280;56604;48.652;9.194;2023-06-14T07:37:26;95937.41;;;24.91;31.01
69411;BME280;56604;48.652;9.194;2023-06-14T07:39:51;95934.97;;;25.53;30.61
69411;BME280;56604;48.652;9.194;2023-06-14T07:42:16;95941.09;;;25.34;31.09
69411;BME280;56604;48.652;9.194;2023-06-14T07:44:42;95950.91;;;25.62;30.99
69411;BME280;56604;48.652;9.194;2023-06-14T07:47:07;95947.41;;;24.75;31.77
69411;BME280;56604;48.652;9.194;2023-06-14T07:49:32;95949.94;;;25.70;32.46
69411;BME280;56604;48.652;9.194;2023-06-14T07:51:57;95949.66;;;26.57;30.77
69411;BME280;56604;48.652;9.194;2023-06-14T07:54:23;95946.75;;;26.03;30.71
69411;BME280;56604;48.652;9.194;2023-06-14T07:56:51;95950.56;;;26.22;30.20
69411;BME280;56604;48.652;9.194;2023-06-14T07:59:17;95942.78;;;26.86;29.24
69411;BME280;56604;48.652;9.194;2023-06-14T08:01:42;95944.25;;;26.80;29.38
69411;BME280;56604;48.652;9.194;2023-06-14T08:04:14;95940.00;;;27.89;28.31
69411;BME280;56604;48.652;9.194;2023-06-14T08:06:40;95947.47;;;27.39;29.15
69411;BME280;56604;48.652;9.194;2023-06-14T08:09:09;95942.44;;;27.14;28.62
69411;BME280;56604;48.652;9.194;2023-06-14T08:11:34;95947.19;;;25.86;30.07
69411;BME280;56604;48.652;9.194;2023-06-14T08:13:59;95953.13;;;26.57;29.66
69411;BME280;56604;48.652;9.194;2023-06-14T08:16:25;95948.47;;;27.04;30.44
69411;BME280;56604;48.652;9.194;2023-06-14T08:18:50;95950.38;;;26.34;30.60
69411;BME280;56604;48.652;9.194;2023-06-14T08:21:15;95950.38;;;26.54;30.73
69411;BME280;56604;48.652;9.194;2023-06-14T08:23:41;95960.16;;;26.62;30.04
69411;BME280;56604;48.652;9.194;2023-06-14T08:26:08;95960.91;;;26.20;30.54
69411;BME280;56604;48.652;9.194;2023-06-14T08:28:34;95958.47;;;26.34;30.64
69411;BME280;56604;48.652;9.194;2023-06-14T08:30:59;95959.19;;;25.53;31.07
69411;BME280;56604;48.652;9.194;2023-06-14T08:33:24;95946.94;;;26.57;30.64
69411;BME280;56604;48.652;9.194;2023-06-14T08:35:49;95957.44;;;26.85;28.83
69411;BME280;56604;48.652;9.194;2023-06-14T08:38:15;95960.25;;;26.69;30.45
69411;BME280;56604;48.652;9.194;2023-06-14T08:40:41;95965.75;;;25.91;30.60
69411;BME280;56604;48.652;9.194;2023-06-14T08:43:07;95963.41;;;26.09;30.46
69411;BME280;56604;48.652;9.194;2023-06-14T08:45:32;95964.34;;;25.97;31.63
69411;BME280;56604;48.652;9.194;2023-06-14T08:47:57;95964.31;;;26.17;30.62
69411;BME280;56604;48.652;9.194;2023-06-14T08:50:25;95969.75;;;25.27;31.60
69411;BME280;56604;48.652;9.194;2023-06-14T08:52:54;95967.78;;;24.92;32.51
69411;BME280;56604;48.652;9.194;2023-06-14T08:55:23;95966.06;;;25.51;31.75
69411;BME280;56604;48.652;9.194;2023-06-14T08:57:51;95960.81;;;25.77;32.27
69411;BME280;56604;48.652;9.194;2023-06-14T09:00:19;95975.09;;;26.17;32.40
69411;BME280;56604;48.652;9.194;2023-06-14T09:02:45;95965.50;;;25.80;31.60
69411;BME280;56604;48.652;9.194;2023-06-14T09:05:11;95976.19;;;25.57;31.47
69411;BME280;56604;48.652;9.194;2023-06-14T09:07:38;95964.03;;;25.28;32.58
69411;BME280;56604;48.652;9.194;2023-06-14T09:10:07;95965.31;;;25.34;31.36
69411;BME280;56604;48.652;9.194;2023-06-14T09:12:33;95965.53;;;24.94;32.68
69411;BME280;56604;48.652;9.194;2023-06-14T09:14:58;95965.38;;;25.38;31.25
69411;BME280;56604;48.652;9.194;2023-06-14T09:17:24;95965.97;;;24.96;32.41
69411;BME280;56604;48.652;9.194;2023-06-14T09:19:49;95965.25;;;25.31;32.06
69411;BME280;56604;48.652;9.194;2023-06-14T09:22:16;95970.97;;;25.13;30.36
69411;BME280;56604;48.652;9.194;2023-06-14T09:24:41;95974.09;;;24.52;31.89
69411;BME280;56604;48.652;9.194;2023-06-14T09:27:07;95982.78;;;24.17;32.45
69411;BME280;56604;48.652;9.194;2023-06-14T09:29:33;95971.16;;;24.89;32.36
69411;BME280;56604;48.652;9.194;2023-06-14T09:31:58;95979.34;;;24.77;32.39
69411;BME280;56604;48.652;9.194;2023-06-14T09:34:24;95973.03;;;24.41;32.30
69411;BME280;56604;48.652;9.194;2023-06-14T09:36:49;95970.31;;;24.41;32.67
69411;BME280;56604;48.652;9.194;2023-06-14T09:39:17;95974.47;;;24.66;32.34
69411;BME280;56604;48.652;9.194;2023-06-14T09:41:42;95976.03;;;24.99;30.44
69411;BME280;56604;48.652;9.194;2023-06-14T09:44:09;95973.59;;;25.26;31.37
69411;BME280;56604;48.652;9.194;2023-06-14T09:46:36;95977.06;;;25.10;29.91
69411;BME280;56604;48.652;9.194;2023-06-14T09:49:02;95975.00;;;24.56;30.86
69411;BME280;56604;48.652;9.194;2023-06-14T09:51:28;95977.16;;;24.51;31.68
69411;BME280;56604;48.652;9.194;2023-06-14T09:53:59;95972.47;;;25.82;31.14
69411;BME280;56604;48.652;9.194;2023-06-14T09:56:31;95972.09;;;25.28;29.26
69411;BME280;56604;48.652;9.194;2023-06-14T09:58:58;95968.47;;;26.53;28.47
69411;BME280;56604;48.652;9.194;2023-06-14T10:01:24;95971.78;;;24.82;30.75
69411;BME280;56604;48.652;9.194;2023-06-14T10:03:55;95967.25;;;25.89;29.91
69411;BME280;56604;48.652;9.194;2023-06-14T10:06:22;95970.97;;;25.13;30.62
69411;BME280;56604;48.652;9.194;2023-06-14T10:08:51;95970.13;;;24.94;27.97
69411;BME280;56604;48.652;9.194;2023-06-14T10:11:17;95969.16;;;25.18;29.14
69411;BME280;56604;48.652;9.194;2023-06-14T10:13:42;95974.09;;;25.31;29.10
69411;BME280;56604;48.652;9.194;2023-06-14T10:16:16;95959.72;;;25.98;29.66
69411;BME280;56604;48.652;9.194;2023-06-14T10:18:49;95975.53;;;26.19;29.56
69411;BME280;56604;48.652;9.194;2023-06-14T10:21:36;95965.72;;;25.72;28.73
69411;BME280;56604;48.652;9.194;2023-06-14T10:24:07;95965.59;;;25.13;30.02
69411;BME280;56604;48.652;9.194;2023-06-14T10:26:33;95960.31;;;25.17;30.40
69411;BME280;56604;48.652;9.194;2023-06-14T10:29:08;95966.13;;;24.72;31.36
69411;BME280;56604;48.652;9.194;2023-06-14T10:31:45;95963.91;;;24.74;30.82
69411;BME280;56604;48.652;9.194;2023-06-14T10:34:12;95961.09;;;25.02;30.98
69411;BME280;56604;48.652;9.194;2023-06-14T10:36:40;95961.19;;;24.89;30.46
69411;BME280;56604;48.652;9.194;2023-06-14T10:39:07;95969.22;;;24.42;31.02
69411;BME280;56604;48.652;9.194;2023-06-14T10:41:38;95967.66;;;25.04;31.53
69411;BME280;56604;48.652;9.194;2023-06-14T10:46:39;95960.22;;;26.03;29.04
69411;BME280;56604;48.652;9.194;2023-06-14T10:49:05;95960.50;;;26.60;27.86
69411;BME280;56604;48.652;9.194;2023-06-14T10:51:38;95961.25;;;26.61;28.08
69411;BME280;56604;48.652;9.194;2023-06-14T10:54:12;95965.09;;;25.98;27.81
69411;BME280;56604;48.652;9.194;2023-06-14T10:56:47;95962.66;;;25.19;28.85
69411;BME280;56604;48.652;9.194;2023-06-14T10:59:14;95961.03;;;24.51;30.07
69411;BME280;56604;48.652;9.194;2023-06-14T11:04:49;95961.47;;;24.68;28.63
69411;BME280;56604;48.652;9.194;2023-06-14T11:12:59;95951.09;;;25.34;26.83
69411;BME280;56604;48.652;9.194;2023-06-14T11:15:31;95957.13;;;24.36;27.71
69411;BME280;56604;48.652;9.194;2023-06-14T11:17:57;95953.91;;;24.14;29.51
69411;BME280;56604;48.652;9.194;2023-06-14T11:20:27;95953.13;;;23.86;30.56
69411;BME280;56604;48.652;9.194;2023-06-14T11:22:53;95956.53;;;24.27;31.29
69411;BME280;56604;48.652;9.194;2023-06-14T11:25:19;95961.16;;;24.42;30.90
69411;BME280;56604;48.652;9.194;2023-06-14T11:27:45;95958.69;;;23.93;30.38
69411;BME280;56604;48.652;9.194;2023-06-14T11:30:12;95966.59;;;24.01;31.19
69411;BME280;56604;48.652;9.194;2023-06-14T11:32:38;95962.41;;;24.16;30.08
69411;BME280;56604;48.652;9.194;2023-06-14T11:35:05;95964.78;;;24.34;31.50
69411;BME280;56604;48.652;9.194;2023-06-14T11:37:30;95956.59;;;24.58;30.40
69411;BME280;56604;48.652;9.194;2023-06-14T11:39:58;95959.53;;;24.53;29.16
69411;BME280;56604;48.652;9.194;2023-06-14T11:42:26;95947.16;;;24.49;29.40
69411;BME280;56604;48.652;9.194;2023-06-14T11:44:53;95946.88;;;24.69;29.03
69411;BME280;56604;48.652;9.194;2023-06-14T11:47:18;95940.28;;;25.15;30.87
69411;BME280;56604;48.652;9.194;2023-06-14T11:49:43;95941.81;;;25.16;31.23
69411;BME280;56604;48.652;9.194;2023-06-14T11:52:09;95940.28;;;24.51;29.95
69411;BME280;56604;48.652;9.194;2023-06-14T11:54:34;95944.44;;;24.05;30.28
69411;BME280;56604;48.652;9.194;2023-06-14T11:56:59;95955.41;;;23.59;31.98
69411;BME280;56604;48.652;9.194;2023-06-14T11:59:25;95954.09;;;23.65;30.95
69411;BME280;56604;48.652;9.194;2023-06-14T12:01:52;95950.59;;;24.05;31.06
69411;BME280;56604;48.652;9.194;2023-06-14T12:04:29;95969.44;;;23.93;31.06
69411;BME280;56604;48.652;9.194;2023-06-14T12:06:54;95950.09;;;24.15;31.03
69411;BME280;56604;48.652;9.194;2023-06-14T12:09:20;95947.31;;;24.72;30.61
69411;BME280;56604;48.652;9.194;2023-06-14T12:11:48;95951.38;;;24.50;30.51
69411;BME280;56604;48.652;9.194;2023-06-14T12:14:14;95938.56;;;24.75;30.56
69411;BME280;56604;48.652;9.194;2023-06-14T12:16:40;95942.09;;;24.95;29.89
69411;BME280;56604;48.652;9.194;2023-06-14T12:19:11;95944.53;;;25.70;28.86
69411;BME280;56604;48.652;9.194;2023-06-14T12:21:38;95943.50;;;25.94;28.86
69411;BME280;56604;48.652;9.194;2023-06-14T12:24:06;95932.22;;;26.51;27.74
69411;BME280;56604;48.652;9.194;2023-06-14T12:26:32;95931.22;;;26.39;28.09
69411;BME280;56604;48.652;9.194;2023-06-14T12:28:58;95942.28;;;24.86;29.23
69411;BME280;56604;48.652;9.194;2023-06-14T12:31:23;95939.66;;;24.42;30.21
69411;BME280;56604;48.652;9.194;2023-06-14T12:33:49;95932.72;;;24.41;30.22
69411;BME280;56604;48.652;9.194;2023-06-14T12:36:15;95938.44;;;24.87;28.62
69411;BME280;56604;48.652;9.194;2023-06-14T12:38:41;95942.63;;;24.53;30.82
69411;BME280;56604;48.652;9.194;2023-06-14T12:41:08;95939.91;;;24.37;30.34
69411;BME280;56604;48.652;9.194;2023-06-14T12:43:34;95944.28;;;24.13;31.05
69411;BME280;56604;48.652;9.194;2023-06-14T12:46:00;95936.28;;;24.01;32.83
69411;BME280;56604;48.652;9.194;2023-06-14T12:48:25;95941.59;;;24.13;31.79
69411;BME280;56604;48.652;9.194;2023-06-14T12:50:52;95936.78;;;23.91;31.11
69411;BME280;56604;48.652;9.194;2023-06-14T12:53:17;95951.19;;;23.58;31.58
69411;BME280;56604;48.652;9.194;2023-06-14T12:55:43;95947.09;;;23.89;32.36
69411;BME280;56604;48.652;9.194;2023-06-14T12:58:08;95952.06;;;23.62;30.71
69411;BME280;56604;48.652;9.194;2023-06-14T13:00:35;95941.41;;;23.78;32.09
69411;BME280;56604;48.652;9.194;2023-06-14T13:03:00;95942.38;;;24.14;32.30
69411;BME280;56604;48.652;9.194;2023-06-14T13:05:26;95936.38;;;24.05;30.85
69411;BME280;56604;48.652;9.194;2023-06-14T13:07:51;95940.25;;;24.19;30.37
69411;BME280;56604;48.652;9.194;2023-06-14T13:10:17;95930.22;;;24.80;29.81
69411;BME280;56604;48.652;9.194;2023-06-14T13:12:42;95937.47;;;25.27;29.70